Talos — SWST — position and weather

sailwx.info

Track history (hours):
 
Tides and Currents Weather Stations Pressure Air Temp Water Temp Dewpoint Dewpoint Depression Visibility Wind Speed Wind Dir Waves Ship Positions

Talos

Last reported at 2017-Sep-21 01:05 UTC. Time now 2017-Sep-22 19:08 UTC.
Position N 37°33' E 023°41'.

Length 124 m; draft 3.6 m.

Type: Cargo ship. MMSI: 239786000.

Date/timePositionNaut miles runAvg speedWind from/ knotsBaromVisibWave heightAir tempDewpointWater temp
2017-Sep-21 01:05N 37°33' E 023°41'213.6
2017-Sep-21 00:54N 37°36' E 023°41'513.5
2017-Sep-21 00:30N 37°41' E 023°41'714.2
2017-Sep-21 00:00N 37°47' E 023°37'714.1
2017-Sep-20 23:30N 37°54' E 023°37'3 5.4
2017-Sep-20 23:00N 37°57' E 023°36'0 0.0
2017-Sep-20 22:30N 37°57' E 023°36'0 0.0
2017-Sep-20 22:00N 37°57' E 023°36'0 0.0
2017-Sep-20 21:30N 37°57' E 023°36'0 0.0
2017-Sep-20 21:00N 37°57' E 023°36'0 0.0
2017-Sep-20 20:30N 37°57' E 023°36'0 0.0
2017-Sep-20 20:00N 37°57' E 023°36'0 0.0
2017-Sep-20 19:30N 37°57' E 023°36'2 3.3
2017-Sep-20 19:00N 37°56' E 023°37'713.5
2017-Sep-20 18:30N 37°49' E 023°41'713.4
2017-Sep-20 18:00N 37°43' E 023°44'613.0
2017-Sep-20 17:31N 37°39' E 023°50'613.0
2017-Sep-20 17:00N 37°37' E 023°57'1112.4
2017-Sep-20 16:06N 37°33' E 024°11'2612.0
2017-Sep-20 13:55N 37°30' E 024°44'512.8
2017-Sep-20 13:30N 37°31' E 024°50'612.8
2017-Sep-20 13:00N 37°30' E 024°58'613.1
2017-Sep-20 12:30N 37°29' E 025°06'713.7
2017-Sep-20 12:00N 37°28' E 025°15'4 7.4
2017-Sep-20 11:30N 37°28' E 025°19'0 0.9
2017-Sep-20 11:00N 37°28' E 025°19'510.6
2017-Sep-20 10:30N 37°32' E 025°23'714.1
2017-Sep-20 10:00N 37°34' E 025°31'714.7
2017-Sep-20 09:30N 37°35' E 025°41'814.7
2017-Sep-20 09:00N 37°36' E 025°50'3 0.1
2017-Sep-18 22:08N 37°37' E 025°54'213.8
2017-Sep-18 22:00N 37°36' E 025°52'713.9
2017-Sep-18 21:30N 37°35' E 025°43'713.8
2017-Sep-18 21:01N 37°33' E 025°35'713.5
2017-Sep-18 20:31N 37°32' E 025°26'713.6
2017-Sep-18 20:00N 37°30' E 025°18'2 3.7
2017-Sep-18 19:31N 37°28' E 025°17'714.0
2017-Sep-18 19:01N 37°29' E 025°09'713.9
2017-Sep-18 18:29N 37°30' E 024°60'713.6
2017-Sep-18 18:00N 37°31' E 024°52'3813.8
2017-Sep-18 15:14N 37°34' E 024°03'313.9
2017-Sep-18 15:00N 37°35' E 023°60'713.8
2017-Sep-18 14:30N 37°37' E 023°51'713.6
2017-Sep-18 14:00N 37°40' E 023°43'713.7
2017-Sep-18 13:30N 37°45' E 023°39'713.7
2017-Sep-18 13:00N 37°52' E 023°37'510.4
2017-Sep-18 12:31N 37°57' E 023°36'0 0.2
2017-Sep-18 12:01N 37°57' E 023°36'0 0.0
2017-Sep-18 11:30N 37°57' E 023°36'0 0.0
2017-Sep-18 11:00N 37°57' E 023°36'0 0.0
2017-Sep-18 10:30N 37°57' E 023°36'0 0.0
2017-Sep-18 10:00N 37°57' E 023°36'0 0.0
2017-Sep-18 09:31N 37°57' E 023°36'0 0.0
2017-Sep-18 09:00N 37°57' E 023°36'0 0.0
2017-Sep-18 08:31N 37°57' E 023°36'0 0.0
2017-Sep-18 08:00N 37°57' E 023°36'0 0.0
2017-Sep-18 07:31N 37°57' E 023°36'0 0.0
2017-Sep-18 07:00N 37°57' E 023°36'0 0.0
2017-Sep-18 06:30N 37°57' E 023°36'0 0.0
2017-Sep-18 06:00N 37°57' E 023°36'0 0.0
2017-Sep-18 05:30N 37°57' E 023°36'0 0.0
2017-Sep-18 05:00N 37°57' E 023°36'0 0.0
2017-Sep-18 04:30N 37°57' E 023°36'0 0.0
2017-Sep-18 04:01N 37°57' E 023°36'0 0.0
2017-Sep-18 03:30N 37°57' E 023°36'0 0.0
2017-Sep-18 03:00N 37°57' E 023°36'0 0.0
2017-Sep-18 02:30N 37°57' E 023°36'0 0.0
2017-Sep-18 02:01N 37°57' E 023°36'0 0.0
2017-Sep-18 01:30N 37°57' E 023°36'0 0.0
2017-Sep-18 01:01N 37°57' E 023°36'0 0.0
2017-Sep-18 00:30N 37°57' E 023°36'0 0.0
2017-Sep-18 00:00N 37°57' E 023°36'0 0.0
2017-Sep-17 23:30N 37°57' E 023°36'0 0.0
2017-Sep-17 23:00N 37°57' E 023°36'0 0.0
2017-Sep-17 22:30N 37°57' E 023°36'0 0.0
2017-Sep-17 22:00N 37°57' E 023°36'0 0.0
2017-Sep-17 21:30N 37°57' E 023°36'0 0.0
2017-Sep-17 21:01N 37°57' E 023°36'0 0.0
2017-Sep-17 20:30N 37°57' E 023°36'0 0.0
2017-Sep-17 20:00N 37°57' E 023°36'0 0.0
2017-Sep-17 19:30N 37°57' E 023°36'0 0.0
2017-Sep-17 19:00N 37°57' E 023°36'0 0.0
2017-Sep-17 18:30N 37°57' E 023°36'0 0.0
2017-Sep-17 18:00N 37°57' E 023°36'0 0.0
2017-Sep-17 17:31N 37°57' E 023°36'0 0.0
2017-Sep-17 17:01N 37°57' E 023°36'0 0.0
2017-Sep-17 16:30N 37°57' E 023°36'0 0.0
2017-Sep-17 16:00N 37°57' E 023°36'0 0.0
2017-Sep-17 15:30N 37°57' E 023°36'0 0.0
2017-Sep-17 15:00N 37°57' E 023°36'0 0.0
2017-Sep-17 14:31N 37°57' E 023°36'0 0.0
2017-Sep-17 14:01N 37°57' E 023°36'0 0.0
2017-Sep-17 13:31N 37°57' E 023°36'0 0.0
2017-Sep-17 13:00N 37°57' E 023°36'0 0.0
2017-Sep-17 12:30N 37°57' E 023°36'0 0.0
2017-Sep-17 12:00N 37°57' E 023°36'0 0.0
2017-Sep-17 11:30N 37°57' E 023°36'0 0.0
2017-Sep-17 11:00N 37°57' E 023°36'0 0.0
2017-Sep-17 10:30N 37°57' E 023°36'0 0.0
2017-Sep-17 10:00N 37°57' E 023°36'0 0.0
2017-Sep-17 09:31N 37°57' E 023°36'0 0.0
2017-Sep-17 09:00N 37°57' E 023°36'0 0.0
2017-Sep-17 08:30N 37°57' E 023°36'0 0.0
2017-Sep-17 08:00N 37°57' E 023°36'0 0.0
2017-Sep-17 07:30N 37°57' E 023°36'0 0.0
2017-Sep-17 07:00N 37°57' E 023°36'0 0.0
2017-Sep-17 06:30N 37°57' E 023°36'0 0.0
2017-Sep-17 06:00N 37°57' E 023°36'0 0.0
2017-Sep-17 05:30N 37°57' E 023°36'0 0.1
2017-Sep-17 05:01N 37°57' E 023°36'4 8.9
2017-Sep-17 04:31N 37°53' E 023°38'714.0
2017-Sep-17 04:01N 37°47' E 023°42'713.8
2017-Sep-17 03:30N 37°40' E 023°45'714.0
2017-Sep-17 03:00N 37°33' E 023°47'714.2
2017-Sep-17 02:30N 37°26' E 023°49'714.2
2017-Sep-17 02:00N 37°20' E 023°51'714.5
2017-Sep-17 01:30N 37°12' E 023°52'714.7
2017-Sep-17 01:00N 37°05' E 023°53'714.6
2017-Sep-17 00:30N 36°58' E 023°54'714.5
2017-Sep-17 00:00N 36°51' E 023°56'814.2
2017-Sep-16 23:26N 36°43' E 023°58'614.2
2017-Sep-16 23:00N 36°37' E 023°59'714.1
2017-Sep-16 22:30N 36°30' E 024°01'713.9
2017-Sep-16 22:00N 36°23' E 024°02'713.9
2017-Sep-16 21:30N 36°16' E 024°04'4713.8
2017-Sep-16 18:07N 35°30' E 024°12'6 0.5
2017-Sep-16 06:28N 35°30' E 024°04'9 9.7
2017-Sep-16 05:35N 35°35' E 024°13'3013.6
2017-Sep-16 03:22N 36°05' E 024°05'513.6
2017-Sep-16 03:00N 36°09' E 024°04'5613.4
2017-Sep-15 22:52N 37°04' E 023°50'513.1
2017-Sep-15 22:30N 37°08' E 023°49'1213.1
2017-Sep-15 21:35N 37°20' E 023°46'113.5
2017-Sep-15 21:30N 37°21' E 023°46'713.4
2017-Sep-15 21:00N 37°28' E 023°44'713.6
2017-Sep-15 20:29N 37°35' E 023°43'613.5
2017-Sep-15 20:00N 37°41' E 023°41'713.7
2017-Sep-15 19:30N 37°47' E 023°37'713.5
2017-Sep-15 19:00N 37°54' E 023°36'3 6.1
2017-Sep-15 18:30N 37°57' E 023°36'0 0.0
2017-Sep-15 18:00N 37°57' E 023°36'0 0.0
2017-Sep-15 17:30N 37°57' E 023°36'0 0.0
2017-Sep-15 17:00N 37°57' E 023°36'0 0.0
2017-Sep-15 16:30N 37°57' E 023°36'0 0.0
2017-Sep-15 16:00N 37°57' E 023°36'0 0.0
2017-Sep-15 15:30N 37°57' E 023°36'0 0.0
2017-Sep-15 15:00N 37°57' E 023°36'0 0.0
2017-Sep-15 14:30N 37°57' E 023°36'0 0.0
2017-Sep-15 14:00N 37°57' E 023°36'0 0.0
2017-Sep-15 13:30N 37°57' E 023°36'0 0.0
2017-Sep-15 13:00N 37°57' E 023°36'0 0.0
2017-Sep-15 12:30N 37°57' E 023°36'0 0.0
2017-Sep-15 12:00N 37°57' E 023°36'0 0.0
2017-Sep-15 11:31N 37°57' E 023°36'0 0.0
2017-Sep-15 11:00N 37°57' E 023°36'0 0.0
2017-Sep-15 10:30N 37°57' E 023°36'0 0.0
2017-Sep-15 10:00N 37°57' E 023°36'0 0.0
2017-Sep-15 09:30N 37°57' E 023°36'0 0.0
2017-Sep-15 09:00N 37°57' E 023°36'0 0.0
2017-Sep-15 08:30N 37°57' E 023°36'0 0.0
2017-Sep-15 08:00N 37°57' E 023°36'0 0.0
2017-Sep-15 07:30N 37°57' E 023°36'0 0.0
2017-Sep-15 07:00N 37°57' E 023°36'0 0.0
2017-Sep-15 06:30N 37°57' E 023°36'0 0.0
2017-Sep-15 06:00N 37°57' E 023°36'0 0.0
2017-Sep-15 05:30N 37°57' E 023°36'0 0.5
2017-Sep-15 05:01N 37°57' E 023°36'612.1
2017-Sep-15 04:30N 37°51' E 023°39'612.9
2017-Sep-15 04:00N 37°46' E 023°42'612.8
2017-Sep-15 03:30N 37°40' E 023°45'713.1
2017-Sep-15 03:00N 37°33' E 023°47'913.4
2017-Sep-15 02:18N 37°24' E 023°49'413.4
2017-Sep-15 02:00N 37°20' E 023°50'813.8
2017-Sep-15 01:26N 37°12' E 023°52'1514.3
2017-Sep-15 00:22N 36°57' E 023°55'60 2.8
2017-Sep-14 02:54N 35°58' E 024°07'613.8
2017-Sep-14 02:30N 36°04' E 024°06'1413.5
2017-Sep-14 01:26N 36°18' E 024°02'8013.7
2017-Sep-13 19:34N 37°37' E 023°42'114.0
2017-Sep-13 19:30N 37°38' E 023°42'713.8
2017-Sep-13 19:00N 37°44' E 023°39'713.8
2017-Sep-13 18:30N 37°51' E 023°36'713.0
2017-Sep-13 18:00N 37°57' E 023°36'0 0.8
2017-Sep-13 17:30N 37°57' E 023°36'0 0.0
2017-Sep-13 17:00N 37°57' E 023°36'0 0.0
2017-Sep-13 16:30N 37°57' E 023°36'0 0.0
2017-Sep-13 15:59N 37°57' E 023°36'0 0.0
2017-Sep-13 15:30N 37°57' E 023°36'0 0.0
2017-Sep-13 15:00N 37°57' E 023°36'0 0.0
2017-Sep-13 14:30N 37°57' E 023°36'0 0.0
2017-Sep-13 14:00N 37°57' E 023°36'0 0.0
2017-Sep-13 13:30N 37°57' E 023°36'0 0.0
2017-Sep-13 13:00N 37°57' E 023°36'0 0.0
2017-Sep-13 12:30N 37°57' E 023°36'0 0.0
2017-Sep-13 12:00N 37°57' E 023°36'0 0.0
2017-Sep-13 11:30N 37°57' E 023°36'0 0.0
2017-Sep-13 10:59N 37°57' E 023°36'0 0.0
2017-Sep-13 10:30N 37°57' E 023°36'0 0.0
2017-Sep-13 10:00N 37°57' E 023°36'0 0.0
2017-Sep-13 09:30N 37°57' E 023°36'0 0.0
2017-Sep-13 09:00N 37°57' E 023°36'0 0.0
2017-Sep-13 08:30N 37°57' E 023°36'0 0.0
2017-Sep-13 08:00N 37°57' E 023°36'0 0.0
2017-Sep-13 07:30N 37°57' E 023°36'0 0.0
2017-Sep-13 07:00N 37°57' E 023°36'0 0.0
2017-Sep-13 06:30N 37°57' E 023°36'0 0.0
2017-Sep-13 06:00N 37°57' E 023°36'0 0.0
2017-Sep-13 05:30N 37°57' E 023°36'0 0.0
2017-Sep-13 05:00N 37°57' E 023°36'0 0.0
2017-Sep-13 04:30N 37°57' E 023°36'0 0.0
2017-Sep-13 04:00N 37°57' E 023°36'1 1.2
2017-Sep-13 03:31N 37°57' E 023°36'714.0
2017-Sep-13 03:00N 37°51' E 023°40'713.5
2017-Sep-13 02:30N 37°44' E 023°43'611.9
2017-Sep-13 02:00N 37°40' E 023°48'612.9
2017-Sep-13 01:30N 37°37' E 023°55'3913.0
2017-Sep-12 22:32N 37°31' E 024°44'014.0
2017-Sep-12 22:30N 37°31' E 024°44'814.1
2017-Sep-12 21:58N 37°31' E 024°54'612.2
2017-Sep-12 21:30N 37°26' E 024°57'1 1.4
2017-Sep-12 21:00N 37°27' E 024°58'714.7
2017-Sep-12 20:30N 37°31' E 025°06'3 5.9
2017-Sep-12 20:01N 37°32' E 025°09'714.4
2017-Sep-12 19:31N 37°28' E 025°17'1 2.4
2017-Sep-12 18:58N 37°27' E 025°18'613.5
2017-Sep-12 18:30N 37°21' E 025°16'1614.2
2017-Sep-12 17:24N 37°07' E 025°08'2 3.8
2017-Sep-12 16:53N 37°05' E 025°09'4 8.0
2017-Sep-12 16:24N 37°08' E 025°11'513.1
2017-Sep-12 16:00N 37°10' E 025°18'5 9.7
2017-Sep-12 15:30N 37°06' E 025°22'4 7.6
2017-Sep-12 15:00N 37°04' E 025°19'5 0.3
2017-Sep-12 01:36N 36°59' E 025°19'114.4
2017-Sep-12 01:31N 37°00' E 025°19'612.8
2017-Sep-12 01:01N 37°07' E 025°20'2 3.2
2017-Sep-12 00:30N 37°06' E 025°22'612.2
2017-Sep-12 00:00N 37°10' E 025°16'814.8
2017-Sep-11 23:30N 37°06' E 025°08'1 2.6
2017-Sep-11 23:01N 37°05' E 025°08'612.4
2017-Sep-11 22:30N 37°11' E 025°09'713.6
2017-Sep-11 22:00N 37°17' E 025°13'713.5
2017-Sep-11 21:30N 37°23' E 025°17'5 9.6
2017-Sep-11 21:00N 37°28' E 025°19'5 9.8
2017-Sep-11 20:30N 37°30' E 025°14'4 8.6
2017-Sep-11 20:01N 37°32' E 025°09'611.4
2017-Sep-11 19:30N 37°29' E 025°04'612.1
2017-Sep-11 19:00N 37°26' E 024°57'4 7.1
2017-Sep-11 18:31N 37°30' E 024°56'713.3
2017-Sep-11 18:00N 37°32' E 024°48'4014.0
2017-Sep-11 15:11N 37°34' E 023°59'414.2
2017-Sep-11 14:54N 37°36' E 023°54'513.9
2017-Sep-11 14:30N 37°37' E 023°47'612.8
2017-Sep-11 14:00N 37°41' E 023°41'713.5
2017-Sep-11 13:30N 37°48' E 023°38'713.5
2017-Sep-11 13:01N 37°54' E 023°36'3 5.7
2017-Sep-11 12:30N 37°57' E 023°36'0 0.0
2017-Sep-11 12:00N 37°57' E 023°36'0 0.0
2017-Sep-11 11:30N 37°57' E 023°36'0 0.0
2017-Sep-11 11:00N 37°57' E 023°36'0 0.0
2017-Sep-11 10:30N 37°57' E 023°36'0 0.0
2017-Sep-11 10:00N 37°57' E 023°36'0 0.0
2017-Sep-11 09:30N 37°57' E 023°36'0 0.0
2017-Sep-11 09:00N 37°57' E 023°36'0 0.0
2017-Sep-11 08:30N 37°57' E 023°36'0 0.0
2017-Sep-11 08:00N 37°57' E 023°36'0 0.0
2017-Sep-11 07:30N 37°57' E 023°36'0 0.0
2017-Sep-11 07:00N 37°57' E 023°36'0 0.0
2017-Sep-11 06:30N 37°57' E 023°36'0 0.0
2017-Sep-11 06:00N 37°57' E 023°36'0 0.0
2017-Sep-11 05:30N 37°57' E 023°36'0 0.0
2017-Sep-11 05:00N 37°57' E 023°36'0 0.0
2017-Sep-11 04:30N 37°57' E 023°36'0 0.0
2017-Sep-11 04:00N 37°57' E 023°36'0 0.0
2017-Sep-11 03:30N 37°57' E 023°36'0 0.0
2017-Sep-11 03:00N 37°57' E 023°36'0 0.0
2017-Sep-11 02:30N 37°57' E 023°36'0 0.0
2017-Sep-11 02:00N 37°57' E 023°36'0 0.0
2017-Sep-11 01:30N 37°57' E 023°36'  
Track history (hours):
 
Tides and Currents Weather Stations Pressure Air Temp Water Temp Dewpoint Dewpoint Depression Visibility Wind Speed Wind Dir Waves Ship Positions

Talos

Last reported at 2017-Sep-21 01:05 UTC. Time now 2017-Sep-22 19:08 UTC.
Position N 37°33' E 023°41'.

Length 124 m; draft 3.6 m.

Type: Cargo ship. MMSI: 239786000.

Date/timePositionNaut miles runAvg speedWind from/ knotsBaromVisibWave heightAir tempDewpointWater temp
2017-Sep-21 01:05N 37°33' E 023°41'213.6
2017-Sep-21 00:54N 37°36' E 023°41'513.5
2017-Sep-21 00:30N 37°41' E 023°41'714.2
2017-Sep-21 00:00N 37°47' E 023°37'714.1
2017-Sep-20 23:30N 37°54' E 023°37'3 5.4
2017-Sep-20 23:00N 37°57' E 023°36'0 0.0
2017-Sep-20 22:30N 37°57' E 023°36'0 0.0
2017-Sep-20 22:00N 37°57' E 023°36'0 0.0
2017-Sep-20 21:30N 37°57' E 023°36'0 0.0
2017-Sep-20 21:00N 37°57' E 023°36'0 0.0
2017-Sep-20 20:30N 37°57' E 023°36'0 0.0
2017-Sep-20 20:00N 37°57' E 023°36'0 0.0
2017-Sep-20 19:30N 37°57' E 023°36'2 3.3
2017-Sep-20 19:00N 37°56' E 023°37'713.5
2017-Sep-20 18:30N 37°49' E 023°41'713.4
2017-Sep-20 18:00N 37°43' E 023°44'613.0
2017-Sep-20 17:31N 37°39' E 023°50'613.0
2017-Sep-20 17:00N 37°37' E 023°57'1112.4
2017-Sep-20 16:06N 37°33' E 024°11'2612.0
2017-Sep-20 13:55N 37°30' E 024°44'512.8
2017-Sep-20 13:30N 37°31' E 024°50'612.8
2017-Sep-20 13:00N 37°30' E 024°58'613.1
2017-Sep-20 12:30N 37°29' E 025°06'713.7
2017-Sep-20 12:00N 37°28' E 025°15'4 7.4
2017-Sep-20 11:30N 37°28' E 025°19'0 0.9
2017-Sep-20 11:00N 37°28' E 025°19'510.6
2017-Sep-20 10:30N 37°32' E 025°23'714.1
2017-Sep-20 10:00N 37°34' E 025°31'714.7
2017-Sep-20 09:30N 37°35' E 025°41'814.7
2017-Sep-20 09:00N 37°36' E 025°50'3 0.1
2017-Sep-18 22:08N 37°37' E 025°54'213.8
2017-Sep-18 22:00N 37°36' E 025°52'713.9
2017-Sep-18 21:30N 37°35' E 025°43'713.8
2017-Sep-18 21:01N 37°33' E 025°35'713.5
2017-Sep-18 20:31N 37°32' E 025°26'713.6
2017-Sep-18 20:00N 37°30' E 025°18'2 3.7
2017-Sep-18 19:31N 37°28' E 025°17'714.0
2017-Sep-18 19:01N 37°29' E 025°09'713.9
2017-Sep-18 18:29N 37°30' E 024°60'713.6
2017-Sep-18 18:00N 37°31' E 024°52'3813.8
2017-Sep-18 15:14N 37°34' E 024°03'313.9
2017-Sep-18 15:00N 37°35' E 023°60'713.8
2017-Sep-18 14:30N 37°37' E 023°51'713.6
2017-Sep-18 14:00N 37°40' E 023°43'713.7
2017-Sep-18 13:30N 37°45' E 023°39'713.7
2017-Sep-18 13:00N 37°52' E 023°37'510.4
2017-Sep-18 12:31N 37°57' E 023°36'0 0.2
2017-Sep-18 12:01N 37°57' E 023°36'0 0.0
2017-Sep-18 11:30N 37°57' E 023°36'0 0.0
2017-Sep-18 11:00N 37°57' E 023°36'0 0.0
2017-Sep-18 10:30N 37°57' E 023°36'0 0.0
2017-Sep-18 10:00N 37°57' E 023°36'0 0.0
2017-Sep-18 09:31N 37°57' E 023°36'0 0.0
2017-Sep-18 09:00N 37°57' E 023°36'0 0.0
2017-Sep-18 08:31N 37°57' E 023°36'0 0.0
2017-Sep-18 08:00N 37°57' E 023°36'0 0.0
2017-Sep-18 07:31N 37°57' E 023°36'0 0.0
2017-Sep-18 07:00N 37°57' E 023°36'0 0.0
2017-Sep-18 06:30N 37°57' E 023°36'0 0.0
2017-Sep-18 06:00N 37°57' E 023°36'0 0.0
2017-Sep-18 05:30N 37°57' E 023°36'0 0.0
2017-Sep-18 05:00N 37°57' E 023°36'0 0.0
2017-Sep-18 04:30N 37°57' E 023°36'0 0.0
2017-Sep-18 04:01N 37°57' E 023°36'0 0.0
2017-Sep-18 03:30N 37°57' E 023°36'0 0.0
2017-Sep-18 03:00N 37°57' E 023°36'0 0.0
2017-Sep-18 02:30N 37°57' E 023°36'0 0.0
2017-Sep-18 02:01N 37°57' E 023°36'0 0.0
2017-Sep-18 01:30N 37°57' E 023°36'0 0.0
2017-Sep-18 01:01N 37°57' E 023°36'0 0.0
2017-Sep-18 00:30N 37°57' E 023°36'0 0.0
2017-Sep-18 00:00N 37°57' E 023°36'0 0.0
2017-Sep-17 23:30N 37°57' E 023°36'0 0.0
2017-Sep-17 23:00N 37°57' E 023°36'0 0.0
2017-Sep-17 22:30N 37°57' E 023°36'0 0.0
2017-Sep-17 22:00N 37°57' E 023°36'0 0.0
2017-Sep-17 21:30N 37°57' E 023°36'0 0.0
2017-Sep-17 21:01N 37°57' E 023°36'0 0.0
2017-Sep-17 20:30N 37°57' E 023°36'0 0.0
2017-Sep-17 20:00N 37°57' E 023°36'0 0.0
2017-Sep-17 19:30N 37°57' E 023°36'0 0.0
2017-Sep-17 19:00N 37°57' E 023°36'0 0.0
2017-Sep-17 18:30N 37°57' E 023°36'0 0.0
2017-Sep-17 18:00N 37°57' E 023°36'0 0.0
2017-Sep-17 17:31N 37°57' E 023°36'0 0.0
2017-Sep-17 17:01N 37°57' E 023°36'0 0.0
2017-Sep-17 16:30N 37°57' E 023°36'0 0.0
2017-Sep-17 16:00N 37°57' E 023°36'0 0.0
2017-Sep-17 15:30N 37°57' E 023°36'0 0.0
2017-Sep-17 15:00N 37°57' E 023°36'0 0.0
2017-Sep-17 14:31N 37°57' E 023°36'0 0.0
2017-Sep-17 14:01N 37°57' E 023°36'0 0.0
2017-Sep-17 13:31N 37°57' E 023°36'0 0.0
2017-Sep-17 13:00N 37°57' E 023°36'0 0.0
2017-Sep-17 12:30N 37°57' E 023°36'0 0.0
2017-Sep-17 12:00N 37°57' E 023°36'0 0.0
2017-Sep-17 11:30N 37°57' E 023°36'0 0.0
2017-Sep-17 11:00N 37°57' E 023°36'0 0.0
2017-Sep-17 10:30N 37°57' E 023°36'0 0.0
2017-Sep-17 10:00N 37°57' E 023°36'0 0.0
2017-Sep-17 09:31N 37°57' E 023°36'0 0.0
2017-Sep-17 09:00N 37°57' E 023°36'0 0.0
2017-Sep-17 08:30N 37°57' E 023°36'0 0.0
2017-Sep-17 08:00N 37°57' E 023°36'0 0.0
2017-Sep-17 07:30N 37°57' E 023°36'0 0.0
2017-Sep-17 07:00N 37°57' E 023°36'0 0.0
2017-Sep-17 06:30N 37°57' E 023°36'0 0.0
2017-Sep-17 06:00N 37°57' E 023°36'0 0.0
2017-Sep-17 05:30N 37°57' E 023°36'0 0.1
2017-Sep-17 05:01N 37°57' E 023°36'4 8.9
2017-Sep-17 04:31N 37°53' E 023°38'714.0
2017-Sep-17 04:01N 37°47' E 023°42'713.8
2017-Sep-17 03:30N 37°40' E 023°45'714.0
2017-Sep-17 03:00N 37°33' E 023°47'714.2
2017-Sep-17 02:30N 37°26' E 023°49'714.2
2017-Sep-17 02:00N 37°20' E 023°51'714.5
2017-Sep-17 01:30N 37°12' E 023°52'714.7
2017-Sep-17 01:00N 37°05' E 023°53'714.6
2017-Sep-17 00:30N 36°58' E 023°54'714.5
2017-Sep-17 00:00N 36°51' E 023°56'814.2
2017-Sep-16 23:26N 36°43' E 023°58'614.2
2017-Sep-16 23:00N 36°37' E 023°59'714.1
2017-Sep-16 22:30N 36°30' E 024°01'713.9
2017-Sep-16 22:00N 36°23' E 024°02'713.9
2017-Sep-16 21:30N 36°16' E 024°04'4713.8
2017-Sep-16 18:07N 35°30' E 024°12'6 0.5
2017-Sep-16 06:28N 35°30' E 024°04'9 9.7
2017-Sep-16 05:35N 35°35' E 024°13'3013.6
2017-Sep-16 03:22N 36°05' E 024°05'513.6
2017-Sep-16 03:00N 36°09' E 024°04'5613.4
2017-Sep-15 22:52N 37°04' E 023°50'513.1
2017-Sep-15 22:30N 37°08' E 023°49'1213.1
2017-Sep-15 21:35N 37°20' E 023°46'113.5
2017-Sep-15 21:30N 37°21' E 023°46'713.4
2017-Sep-15 21:00N 37°28' E 023°44'713.6
2017-Sep-15 20:29N 37°35' E 023°43'613.5
2017-Sep-15 20:00N 37°41' E 023°41'713.7
2017-Sep-15 19:30N 37°47' E 023°37'713.5
2017-Sep-15 19:00N 37°54' E 023°36'3 6.1
2017-Sep-15 18:30N 37°57' E 023°36'0 0.0
2017-Sep-15 18:00N 37°57' E 023°36'0 0.0
2017-Sep-15 17:30N 37°57' E 023°36'0 0.0
2017-Sep-15 17:00N 37°57' E 023°36'0 0.0
2017-Sep-15 16:30N 37°57' E 023°36'0 0.0
2017-Sep-15 16:00N 37°57' E 023°36'0 0.0
2017-Sep-15 15:30N 37°57' E 023°36'0 0.0
2017-Sep-15 15:00N 37°57' E 023°36'0 0.0
2017-Sep-15 14:30N 37°57' E 023°36'0 0.0
2017-Sep-15 14:00N 37°57' E 023°36'0 0.0
2017-Sep-15 13:30N 37°57' E 023°36'0 0.0
2017-Sep-15 13:00N 37°57' E 023°36'0 0.0
2017-Sep-15 12:30N 37°57' E 023°36'0 0.0
2017-Sep-15 12:00N 37°57' E 023°36'0 0.0
2017-Sep-15 11:31N 37°57' E 023°36'0 0.0
2017-Sep-15 11:00N 37°57' E 023°36'0 0.0
2017-Sep-15 10:30N 37°57' E 023°36'0 0.0
2017-Sep-15 10:00N 37°57' E 023°36'0 0.0
2017-Sep-15 09:30N 37°57' E 023°36'0 0.0
2017-Sep-15 09:00N 37°57' E 023°36'0 0.0
2017-Sep-15 08:30N 37°57' E 023°36'0 0.0
2017-Sep-15 08:00N 37°57' E 023°36'0 0.0
2017-Sep-15 07:30N 37°57' E 023°36'0 0.0
2017-Sep-15 07:00N 37°57' E 023°36'0 0.0
2017-Sep-15 06:30N 37°57' E 023°36'0 0.0
2017-Sep-15 06:00N 37°57' E 023°36'0 0.0
2017-Sep-15 05:30N 37°57' E 023°36'0 0.5
2017-Sep-15 05:01N 37°57' E 023°36'612.1
2017-Sep-15 04:30N 37°51' E 023°39'612.9
2017-Sep-15 04:00N 37°46' E 023°42'612.8
2017-Sep-15 03:30N 37°40' E 023°45'713.1
2017-Sep-15 03:00N 37°33' E 023°47'913.4
2017-Sep-15 02:18N 37°24' E 023°49'413.4
2017-Sep-15 02:00N 37°20' E 023°50'813.8
2017-Sep-15 01:26N 37°12' E 023°52'1514.3
2017-Sep-15 00:22N 36°57' E 023°55'60 2.8
2017-Sep-14 02:54N 35°58' E 024°07'613.8
2017-Sep-14 02:30N 36°04' E 024°06'1413.5
2017-Sep-14 01:26N 36°18' E 024°02'8013.7
2017-Sep-13 19:34N 37°37' E 023°42'114.0
2017-Sep-13 19:30N 37°38' E 023°42'713.8
2017-Sep-13 19:00N 37°44' E 023°39'713.8
2017-Sep-13 18:30N 37°51' E 023°36'713.0
2017-Sep-13 18:00N 37°57' E 023°36'0 0.8
2017-Sep-13 17:30N 37°57' E 023°36'0 0.0
2017-Sep-13 17:00N 37°57' E 023°36'0 0.0
2017-Sep-13 16:30N 37°57' E 023°36'0 0.0
2017-Sep-13 15:59N 37°57' E 023°36'0 0.0
2017-Sep-13 15:30N 37°57' E 023°36'0 0.0
2017-Sep-13 15:00N 37°57' E 023°36'0 0.0
2017-Sep-13 14:30N 37°57' E 023°36'0 0.0
2017-Sep-13 14:00N 37°57' E 023°36'0 0.0
2017-Sep-13 13:30N 37°57' E 023°36'0 0.0
2017-Sep-13 13:00N 37°57' E 023°36'0 0.0
2017-Sep-13 12:30N 37°57' E 023°36'0 0.0
2017-Sep-13 12:00N 37°57' E 023°36'0 0.0
2017-Sep-13 11:30N 37°57' E 023°36'0 0.0
2017-Sep-13 10:59N 37°57' E 023°36'0 0.0
2017-Sep-13 10:30N 37°57' E 023°36'0 0.0
2017-Sep-13 10:00N 37°57' E 023°36'0 0.0
2017-Sep-13 09:30N 37°57' E 023°36'0 0.0
2017-Sep-13 09:00N 37°57' E 023°36'0 0.0
2017-Sep-13 08:30N 37°57' E 023°36'0 0.0
2017-Sep-13 08:00N 37°57' E 023°36'0 0.0
2017-Sep-13 07:30N 37°57' E 023°36'0 0.0
2017-Sep-13 07:00N 37°57' E 023°36'0 0.0
2017-Sep-13 06:30N 37°57' E 023°36'0 0.0
2017-Sep-13 06:00N 37°57' E 023°36'0 0.0
2017-Sep-13 05:30N 37°57' E 023°36'0 0.0
2017-Sep-13 05:00N 37°57' E 023°36'0 0.0
2017-Sep-13 04:30N 37°57' E 023°36'0 0.0
2017-Sep-13 04:00N 37°57' E 023°36'1 1.2
2017-Sep-13 03:31N 37°57' E 023°36'714.0
2017-Sep-13 03:00N 37°51' E 023°40'713.5
2017-Sep-13 02:30N 37°44' E 023°43'611.9
2017-Sep-13 02:00N 37°40' E 023°48'612.9
2017-Sep-13 01:30N 37°37' E 023°55'3913.0
2017-Sep-12 22:32N 37°31' E 024°44'014.0
2017-Sep-12 22:30N 37°31' E 024°44'814.1
2017-Sep-12 21:58N 37°31' E 024°54'612.2
2017-Sep-12 21:30N 37°26' E 024°57'1 1.4
2017-Sep-12 21:00N 37°27' E 024°58'714.7
2017-Sep-12 20:30N 37°31' E 025°06'3 5.9
2017-Sep-12 20:01N 37°32' E 025°09'714.4
2017-Sep-12 19:31N 37°28' E 025°17'1 2.4
2017-Sep-12 18:58N 37°27' E 025°18'613.5
2017-Sep-12 18:30N 37°21' E 025°16'1614.2
2017-Sep-12 17:24N 37°07' E 025°08'2 3.8
2017-Sep-12 16:53N 37°05' E 025°09'4 8.0
2017-Sep-12 16:24N 37°08' E 025°11'513.1
2017-Sep-12 16:00N 37°10' E 025°18'5 9.7
2017-Sep-12 15:30N 37°06' E 025°22'4 7.6
2017-Sep-12 15:00N 37°04' E 025°19'5 0.3
2017-Sep-12 01:36N 36°59' E 025°19'114.4
2017-Sep-12 01:31N 37°00' E 025°19'612.8
2017-Sep-12 01:01N 37°07' E 025°20'2 3.2
2017-Sep-12 00:30N 37°06' E 025°22'612.2
2017-Sep-12 00:00N 37°10' E 025°16'814.8
2017-Sep-11 23:30N 37°06' E 025°08'1 2.6
2017-Sep-11 23:01N 37°05' E 025°08'612.4
2017-Sep-11 22:30N 37°11' E 025°09'713.6
2017-Sep-11 22:00N 37°17' E 025°13'713.5
2017-Sep-11 21:30N 37°23' E 025°17'5 9.6
2017-Sep-11 21:00N 37°28' E 025°19'5 9.8
2017-Sep-11 20:30N 37°30' E 025°14'4 8.6
2017-Sep-11 20:01N 37°32' E 025°09'611.4
2017-Sep-11 19:30N 37°29' E 025°04'612.1
2017-Sep-11 19:00N 37°26' E 024°57'4 7.1
2017-Sep-11 18:31N 37°30' E 024°56'713.3
2017-Sep-11 18:00N 37°32' E 024°48'4014.0
2017-Sep-11 15:11N 37°34' E 023°59'414.2
2017-Sep-11 14:54N 37°36' E 023°54'513.9
2017-Sep-11 14:30N 37°37' E 023°47'612.8
2017-Sep-11 14:00N 37°41' E 023°41'713.5
2017-Sep-11 13:30N 37°48' E 023°38'713.5
2017-Sep-11 13:01N 37°54' E 023°36'3 5.7
2017-Sep-11 12:30N 37°57' E 023°36'0 0.0
2017-Sep-11 12:00N 37°57' E 023°36'0 0.0
2017-Sep-11 11:30N 37°57' E 023°36'0 0.0
2017-Sep-11 11:00N 37°57' E 023°36'0 0.0
2017-Sep-11 10:30N 37°57' E 023°36'0 0.0
2017-Sep-11 10:00N 37°57' E 023°36'0 0.0
2017-Sep-11 09:30N 37°57' E 023°36'0 0.0
2017-Sep-11 09:00N 37°57' E 023°36'0 0.0
2017-Sep-11 08:30N 37°57' E 023°36'0 0.0
2017-Sep-11 08:00N 37°57' E 023°36'0 0.0
2017-Sep-11 07:30N 37°57' E 023°36'0 0.0
2017-Sep-11 07:00N 37°57' E 023°36'0 0.0
2017-Sep-11 06:30N 37°57' E 023°36'0 0.0
2017-Sep-11 06:00N 37°57' E 023°36'0 0.0
2017-Sep-11 05:30N 37°57' E 023°36'0 0.0
2017-Sep-11 05:00N 37°57' E 023°36'0 0.0
2017-Sep-11 04:30N 37°57' E 023°36'0 0.0
2017-Sep-11 04:00N 37°57' E 023°36'0 0.0
2017-Sep-11 03:30N 37°57' E 023°36'0 0.0
2017-Sep-11 03:00N 37°57' E 023°36'0 0.0
2017-Sep-11 02:30N 37°57' E 023°36'0 0.0
2017-Sep-11 02:00N 37°57' E 023°36'0 0.0
2017-Sep-11 01:30N 37°57' E 023°36'  

Dump ship's entire track history